Time;durP1;ratioP1;P1;durP2;ratioP2;P2;SDS_P1;SDS_P2;PMS_P1;PMS_P2;Temp;Humidity;BMP_temperature;BMP_pressure;BME280_temperature;BME280_humidity;BME280_pressure;Samples;Min_cycle;Max_cycle;Signal;HPM_P1;HPM_P2
2022/04/24 00:02:17;;;;;;;14.85;8.73;;;8.40;1.00;;;;;;5036823;28;20127;-79
2022/04/24 00:04:43;;;;;;;17.00;10.63;;;8.30;1.00;;;;;;5037093;28;20024;-79
2022/04/24 00:07:08;;;;;;;16.17;10.68;;;8.30;1.00;;;;;;5036677;28;20127;-79
2022/04/24 00:09:35;;;;;;;14.68;9.93;;;8.20;1.00;;;;;;5036974;28;20025;-79
2022/04/24 00:12:01;;;;;;;16.13;10.02;;;8.20;1.00;;;;;;5036457;28;20556;-79
2022/04/24 00:14:27;;;;;;;12.35;8.50;;;8.20;1.00;;;;;;5036113;28;20092;-79
2022/04/24 00:16:53;;;;;;;9.45;6.43;;;8.20;1.00;;;;;;5036143;28;20053;-79
2022/04/24 00:19:19;;;;;;;11.18;8.05;;;8.10;1.00;;;;;;5018628;28;20052;-79
2022/04/24 00:21:45;;;;;;;14.77;8.40;;;8.10;1.00;;;;;;5036853;28;20318;-79
2022/04/24 00:24:10;;;;;;;14.23;7.95;;;8.00;1.00;;;;;;5036532;28;20033;-78
2022/04/24 00:26:36;;;;;;;14.73;9.68;;;8.00;1.00;;;;;;5035164;28;20412;-79
2022/04/24 00:29:02;;;;;;;15.55;9.18;;;8.00;1.00;;;;;;5035927;28;20029;-79
2022/04/24 00:31:27;;;;;;;12.82;8.48;;;7.80;1.00;;;;;;5035760;28;20040;-79
2022/04/24 00:33:53;;;;;;;12.38;8.00;;;8.00;1.00;;;;;;5035993;28;20021;-79
2022/04/24 00:36:18;;;;;;;10.77;7.13;;;7.90;1.00;;;;;;5036103;28;20121;-79
2022/04/24 00:38:44;;;;;;;13.55;10.23;;;7.90;1.00;;;;;;5037173;28;20037;-80
2022/04/24 00:41:10;;;;;;;14.60;9.77;;;7.80;1.00;;;;;;5039985;28;20056;-80
2022/04/24 00:43:35;;;;;;;12.18;7.38;;;7.70;1.00;;;;;;5021582;28;20021;-80
2022/04/24 00:46:16;;;;;;;12.52;8.38;;;7.70;1.00;;;;;;5039594;28;20032;-80
2022/04/24 00:48:43;;;;;;;8.15;5.47;;;7.70;1.00;;;;;;5040808;28;20112;-80
2022/04/24 00:51:09;;;;;;;12.45;8.50;;;7.70;1.00;;;;;;5042242;28;20029;-80
2022/04/24 00:53:37;;;;;;;14.07;8.73;;;7.70;1.00;;;;;;5041859;28;20148;-79
2022/04/24 00:56:05;;;;;;;12.43;8.23;;;7.60;1.00;;;;;;5043531;28;20068;-80
2022/04/24 00:58:32;;;;;;;13.30;9.75;;;7.60;1.00;;;;;;5037659;28;20068;-80
2022/04/24 01:01:05;;;;;;;12.95;8.27;;;7.60;1.00;;;;;;5025199;28;20044;-80
2022/04/24 01:04:04;;;;;;;12.05;8.10;;;7.50;1.00;;;;;;5051903;28;20486;-80
2022/04/24 01:06:42;;;;;;;12.23;7.75;;;7.50;1.00;;;;;;5041878;28;20025;-80
2022/04/24 01:09:18;;;;;;;12.50;8.15;;;7.40;1.00;;;;;;5043849;28;20063;-80
2022/04/24 01:11:54;;;;;;;12.15;8.32;;;7.40;1.00;;;;;;5055636;28;20033;-80
2022/04/24 01:14:22;;;;;;;10.82;6.88;;;7.40;1.00;;;;;;5060425;28;20041;-79
2022/04/24 01:16:49;;;;;;;12.25;8.65;;;7.40;1.00;;;;;;5042924;28;20050;-80
2022/04/24 01:19:15;;;;;;;10.88;7.35;;;7.40;1.00;;;;;;5062062;28;20064;-79
2022/04/24 01:21:42;;;;;;;11.25;8.23;;;7.30;1.00;;;;;;5053490;28;20040;-78
2022/04/24 01:24:08;;;;;;;10.43;7.03;;;7.20;1.00;;;;;;5055007;28;20014;-79
2022/04/24 01:26:35;;;;;;;9.95;7.07;;;7.20;1.00;;;;;;5044058;28;20030;-79
2022/04/24 01:29:01;;;;;;;11.18;8.18;;;7.20;1.00;;;;;;5062721;28;20028;-79
2022/04/24 01:31:27;;;;;;;10.88;6.75;;;7.20;1.00;;;;;;5035557;28;20041;-79
2022/04/24 01:33:52;;;;;;;9.05;6.07;;;7.30;1.00;;;;;;5044110;28;20075;-79
2022/04/24 01:36:18;;;;;;;12.25;8.00;;;7.20;1.00;;;;;;5048502;28;20045;-79
2022/04/24 01:38:43;;;;;;;11.90;8.27;;;7.10;1.00;;;;;;5037883;28;20030;-79
2022/04/24 01:41:10;;;;;;;12.23;7.60;;;7.20;1.00;;;;;;5039835;28;20097;-80
2022/04/24 01:43:39;;;;;;;11.35;7.07;;;7.10;1.00;;;;;;5020252;28;20028;-80
2022/04/24 01:46:06;;;;;;;10.98;7.22;;;7.10;1.00;;;;;;5038197;28;20025;-80
2022/04/24 01:48:35;;;;;;;16.02;8.30;;;7.10;1.00;;;;;;5038380;28;20052;-79
2022/04/24 01:51:01;;;;;;;9.98;6.68;;;7.10;1.00;;;;;;5037671;28;20061;-80
2022/04/24 01:53:38;;;;;;;8.25;5.65;;;7.00;1.00;;;;;;5039513;28;20037;-79
2022/04/24 01:56:06;;;;;;;12.95;8.10;;;6.90;1.00;;;;;;5039845;28;20025;-80
2022/04/24 01:58:32;;;;;;;12.13;7.57;;;6.90;1.00;;;;;;5039229;28;20083;-79
2022/04/24 02:00:58;;;;;;;11.93;7.93;;;6.80;1.00;;;;;;5038777;28;20085;-79
2022/04/24 02:03:26;;;;;;;10.00;7.57;;;6.90;1.00;;;;;;5039309;28;20048;-79
2022/04/24 02:05:52;;;;;;;13.85;7.43;;;6.90;1.00;;;;;;5020982;28;20056;-79
2022/04/24 02:08:17;;;;;;;12.52;7.75;;;6.80;1.00;;;;;;5021993;28;20022;-80
2022/04/24 02:10:43;;;;;;;10.43;6.07;;;6.80;1.00;;;;;;5019705;28;20030;-80
2022/04/24 02:13:09;;;;;;;8.82;6.25;;;6.80;1.00;;;;;;5026328;28;20037;-80
2022/04/24 02:15:35;;;;;;;15.00;6.10;;;6.70;1.00;;;;;;5040375;28;20507;-80
2022/04/24 02:18:01;;;;;;;9.45;6.43;;;6.70;1.00;;;;;;5040192;28;20033;-79
2022/04/24 02:20:28;;;;;;;11.85;7.25;;;6.70;1.00;;;;;;5025531;28;20053;-79
2022/04/24 02:22:55;;;;;;;14.63;6.50;;;6.70;1.00;;;;;;5044490;28;20017;-79
2022/04/24 02:25:21;;;;;;;11.98;8.15;;;6.70;1.00;;;;;;5043076;28;20051;-79
2022/04/24 02:27:47;;;;;;;8.40;5.55;;;6.40;1.00;;;;;;5040911;28;20070;-80
2022/04/24 02:30:13;;;;;;;13.68;8.40;;;6.40;1.00;;;;;;5039811;28;20041;-80
2022/04/24 02:32:39;;;;;;;12.20;7.90;;;6.30;1.00;;;;;;5041400;28;20485;-80
2022/04/24 02:35:05;;;;;;;12.13;7.68;;;6.20;1.00;;;;;;5040216;28;20480;-80
2022/04/24 02:37:32;;;;;;;8.50;5.78;;;6.20;1.00;;;;;;5028597;28;20116;-79
2022/04/24 02:39:58;;;;;;;11.77;7.35;;;6.30;1.00;;;;;;5041761;28;20518;-79
2022/04/24 02:42:23;;;;;;;10.35;7.53;;;6.50;1.00;;;;;;5039891;28;20027;-79
2022/04/24 02:44:49;;;;;;;8.65;6.28;;;6.40;1.00;;;;;;5033879;28;20472;-79
2022/04/24 02:47:15;;;;;;;11.95;8.05;;;6.40;1.00;;;;;;5037676;28;20392;-80
2022/04/24 02:49:40;;;;;;;11.50;8.18;;;6.30;1.00;;;;;;5021456;28;20026;-80
2022/04/24 02:52:06;;;;;;;8.80;6.28;;;6.10;1.00;;;;;;5045632;28;20480;-80
2022/04/24 02:54:31;;;;;;;12.98;8.13;;;6.10;1.00;;;;;;5028314;28;20034;-80
2022/04/24 02:56:57;;;;;;;9.48;6.55;;;6.10;1.00;;;;;;5044943;28;20032;-79
2022/04/24 02:59:25;;;;;;;10.55;6.55;;;6.00;1.00;;;;;;5046276;28;20032;-79
2022/04/24 03:01:51;;;;;;;12.95;7.50;;;6.00;1.00;;;;;;5045371;28;20048;-79
2022/04/24 03:04:16;;;;;;;13.48;8.65;;;5.90;1.00;;;;;;5017675;28;20393;-80
2022/04/24 03:06:42;;;;;;;11.68;8.80;;;5.90;1.00;;;;;;5017390;28;20109;-80
2022/04/24 03:09:08;;;;;;;14.10;7.68;;;6.00;1.00;;;;;;5017464;28;20032;-79
2022/04/24 03:11:33;;;;;;;10.90;7.47;;;6.00;1.00;;;;;;5017349;28;20049;-79
2022/04/24 03:13:59;;;;;;;9.38;6.28;;;6.00;1.00;;;;;;5017420;28;20026;-80
2022/04/24 03:16:25;;;;;;;11.30;7.65;;;6.10;1.00;;;;;;5016972;28;20420;-79
2022/04/24 03:18:51;;;;;;;13.02;8.07;;;6.10;1.00;;;;;;5000084;28;20026;-79
2022/04/24 03:21:17;;;;;;;10.20;6.60;;;6.10;1.00;;;;;;5017338;28;20033;-79
2022/04/24 03:23:42;;;;;;;11.93;7.78;;;6.10;1.00;;;;;;5017560;28;20026;-79
2022/04/24 03:26:08;;;;;;;13.25;7.50;;;6.10;1.00;;;;;;5017192;28;20022;-79
2022/04/24 03:28:34;;;;;;;12.25;8.23;;;6.20;1.00;;;;;;5017294;28;20017;-79
2022/04/24 03:30:59;;;;;;;13.50;8.27;;;6.10;1.00;;;;;;5017022;28;20033;-80
2022/04/24 03:33:25;;;;;;;10.00;6.47;;;6.20;1.00;;;;;;5017301;28;20104;-79
2022/04/24 03:35:51;;;;;;;14.32;8.45;;;6.20;1.00;;;;;;4999719;28;20481;-79
2022/04/24 03:38:18;;;;;;;10.48;8.32;;;6.00;1.00;;;;;;5016869;28;20037;-79
2022/04/24 03:40:43;;;;;;;11.00;8.00;;;6.10;1.00;;;;;;4999448;28;20037;-79
2022/04/24 03:43:09;;;;;;;13.05;6.93;;;6.30;1.00;;;;;;5016911;28;20030;-79
2022/04/24 03:45:34;;;;;;;11.30;6.88;;;6.40;1.00;;;;;;4999127;28;20072;-79
2022/04/24 03:51:28;;;;;;;11.25;7.47;;;6.40;1.00;;;;;;5016642;28;20053;-79
2022/04/24 03:53:54;;;;;;;11.80;6.82;;;6.50;1.00;;;;;;5016838;28;20022;-79
2022/04/24 03:56:19;;;;;;;10.52;7.07;;;6.50;1.00;;;;;;5016569;28;20049;-79
2022/04/24 03:58:45;;;;;;;8.82;5.93;;;6.50;1.00;;;;;;5016411;28;20393;-79
2022/04/24 04:01:12;;;;;;;9.98;6.55;;;6.50;1.00;;;;;;5016500;28;20037;-79
2022/04/24 04:03:38;;;;;;;14.43;8.43;;;6.60;1.00;;;;;;5016915;28;20020;-80
2022/04/24 04:06:03;;;;;;;9.05;5.07;;;6.60;1.00;;;;;;5016304;28;20026;-79
2022/04/24 04:08:29;;;;;;;8.02;5.68;;;6.60;1.00;;;;;;5016174;28;20500;-79
2022/04/24 04:10:54;;;;;;;9.48;6.00;;;6.70;1.00;;;;;;5029209;28;20043;-79
2022/04/24 04:13:20;;;;;;;11.43;6.10;;;6.80;1.00;;;;;;5018091;28;20030;-80
2022/04/24 04:15:45;;;;;;;8.90;4.88;;;6.80;1.00;;;;;;5017683;28;20049;-79
2022/04/24 04:18:11;;;;;;;10.95;7.15;;;6.70;1.00;;;;;;5034671;28;20060;-79
2022/04/24 04:20:37;;;;;;;9.73;6.20;;;6.90;1.00;;;;;;5036148;28;20030;-79
2022/04/24 04:23:03;;;;;;;8.27;5.93;;;6.80;1.00;;;;;;5017944;28;20018;-78
2022/04/24 04:25:29;;;;;;;11.40;6.75;;;6.90;1.00;;;;;;5035724;28;20101;-79
2022/04/24 04:27:54;;;;;;;10.82;6.68;;;6.90;1.00;;;;;;5035825;28;20045;-80
2022/04/24 04:30:21;;;;;;;12.35;8.18;;;6.90;1.00;;;;;;5035534;28;20037;-80
2022/04/24 04:32:47;;;;;;;8.13;5.18;;;6.90;1.00;;;;;;5017781;28;20021;-80
2022/04/24 04:35:12;;;;;;;9.55;5.50;;;6.90;1.00;;;;;;5017972;28;20026;-79
2022/04/24 04:37:42;;;;;;;9.27;5.50;;;7.00;1.00;;;;;;5035588;28;20144;-80
2022/04/24 04:40:10;;;;;;;14.27;6.70;;;7.10;1.00;;;;;;5035611;28;20029;-80
2022/04/24 04:42:36;;;;;;;11.02;6.82;;;7.00;1.00;;;;;;5017678;28;20104;-80
2022/04/24 04:45:03;;;;;;;9.77;5.43;;;7.10;1.00;;;;;;5035514;28;20161;-80
2022/04/24 04:47:29;;;;;;;9.27;6.50;;;7.20;1.00;;;;;;5017348;28;20381;-80
2022/04/24 04:49:55;;;;;;;7.25;4.75;;;7.20;1.00;;;;;;5035226;28;20040;-80
2022/04/24 04:52:22;;;;;;;11.77;7.13;;;7.10;1.00;;;;;;5017647;28;20018;-79
2022/04/24 04:54:48;;;;;;;10.07;6.00;;;7.10;1.00;;;;;;5035516;28;20036;-79
2022/04/24 04:57:14;;;;;;;8.77;5.15;;;7.10;1.00;;;;;;5035232;28;20710;-80
2022/04/24 04:59:40;;;;;;;8.15;5.57;;;7.20;1.00;;;;;;5017090;28;20026;-80
2022/04/24 05:02:05;;;;;;;8.38;5.45;;;7.30;1.00;;;;;;5035186;28;20033;-79
2022/04/24 05:04:31;;;;;;;7.82;4.72;;;7.50;1.00;;;;;;5035034;28;20485;-80
2022/04/24 05:06:56;;;;;;;10.55;6.78;;;7.40;1.00;;;;;;5035007;28;20480;-79
2022/04/24 05:09:22;;;;;;;10.18;4.57;;;7.40;1.00;;;;;;5035384;28;20547;-80
2022/04/24 05:11:47;;;;;;;9.23;4.47;;;7.50;1.00;;;;;;5034873;28;20112;-79
2022/04/24 05:14:13;;;;;;;13.25;5.88;;;7.50;1.00;;;;;;5034991;28;20413;-78
2022/04/24 05:16:38;;;;;;;7.78;4.30;;;7.70;1.00;;;;;;5035052;28;20561;-78
2022/04/24 05:19:07;;;;;;;9.80;5.93;;;7.80;1.00;;;;;;5034229;28;20520;-78
2022/04/24 05:21:33;;;;;;;10.38;5.93;;;7.90;1.00;;;;;;5030393;28;20064;-78
2022/04/24 05:24:00;;;;;;;10.57;5.35;;;8.00;1.00;;;;;;5033677;28;20034;-77
2022/04/24 05:26:26;;;;;;;10.13;6.15;;;8.00;1.00;;;;;;5034711;28;20022;-78
2022/04/24 05:28:52;;;;;;;8.60;5.65;;;8.10;1.00;;;;;;5017590;28;20207;-79
2022/04/24 05:31:19;;;;;;;8.35;5.28;;;9.30;1.00;;;;;;5032502;28;20056;-78
2022/04/24 05:33:44;;;;;;;6.65;5.53;;;11.20;99.90;;;;;;5033259;28;20515;-78
2022/04/24 05:36:10;;;;;;;7.93;4.43;;;11.70;99.90;;;;;;5033067;28;20053;-78
2022/04/24 05:38:35;;;;;;;9.18;6.07;;;12.40;99.90;;;;;;5032730;28;20025;-79
2022/04/24 05:41:01;;;;;;;6.75;5.03;;;12.90;99.90;;;;;;5027297;28;20037;-79
2022/04/24 05:43:27;;;;;;;9.25;5.45;;;12.90;99.90;;;;;;5029580;28;20025;-79
2022/04/24 05:45:52;;;;;;;8.30;4.63;;;13.00;99.90;;;;;;5026995;28;20029;-79
2022/04/24 05:48:18;;;;;;;6.93;4.13;;;13.80;99.90;;;;;;5033076;28;20028;-78
2022/04/24 05:50:44;;;;;;;10.07;5.85;;;14.10;99.90;;;;;;5033004;28;20029;-78
2022/04/24 05:53:10;;;;;;;6.97;5.30;;;14.30;99.90;;;;;;5033335;28;20032;-79
2022/04/24 05:55:36;;;;;;;7.60;4.70;;;14.60;99.90;;;;;;5032904;28;20096;-79
2022/04/24 05:58:02;;;;;;;7.10;4.85;;;14.20;99.90;;;;;;5033215;28;20025;-79
2022/04/24 06:00:28;;;;;;;7.43;4.55;;;12.90;99.90;;;;;;5032402;28;20091;-79
2022/04/24 06:02:53;;;;;;;8.98;5.50;;;11.10;99.90;;;;;;5033183;28;20022;-79
2022/04/24 06:05:20;;;;;;;7.40;4.50;;;10.50;99.90;;;;;;5032701;28;20049;-79
2022/04/24 06:07:45;;;;;;;7.82;5.28;;;10.40;99.90;;;;;;5032339;28;20034;-79
2022/04/24 06:10:12;;;;;;;8.45;6.05;;;10.40;99.90;;;;;;5034090;28;20037;-79
2022/04/24 06:12:51;;;;;;;9.98;6.22;;;10.00;99.90;;;;;;5016002;28;20032;-79
2022/04/24 06:15:21;;;;;;;9.18;5.63;;;10.00;99.90;;;;;;5014944;28;20049;-80
2022/04/24 06:17:48;;;;;;;7.78;5.65;;;10.10;99.90;;;;;;5034642;28;20499;-79
2022/04/24 06:20:14;;;;;;;8.05;6.28;;;10.00;99.90;;;;;;5032620;28;20112;-79
2022/04/24 06:22:47;;;;;;;9.23;5.07;;;10.20;1.00;;;;;;5016058;28;20021;-79
2022/04/24 06:25:32;;;;;;;6.78;5.40;;;10.10;99.90;;;;;;5032528;28;20041;-79
2022/04/24 06:27:59;;;;;;;8.23;4.72;;;10.20;99.90;;;;;;5013852;28;20101;-76
2022/04/24 06:30:26;;;;;;;8.35;5.15;;;10.20;99.90;;;;;;5032738;28;20109;-80
2022/04/24 06:32:52;;;;;;;9.05;4.97;;;12.40;99.90;;;;;;5023700;28;20042;-80
2022/04/24 06:35:18;;;;;;;4.82;3.70;;;14.50;99.90;;;;;;5032039;28;20010;-79
2022/04/24 06:37:49;;;;;;;8.18;5.18;;;15.90;99.90;;;;;;5031164;28;20036;-79
2022/04/24 06:40:15;;;;;;;;;;;16.10;99.90;;;;;;5031105;28;20026;-80
2022/04/24 06:42:50;;;;;;;7.63;4.55;;;16.40;99.90;;;;;;5030462;28;19912;-79
2022/04/24 06:45:17;;;;;;;6.80;5.35;;;16.50;99.90;;;;;;5028725;28;20045;-80
2022/04/24 06:47:43;;;;;;;6.82;4.47;;;17.40;99.90;;;;;;5031979;28;20175;-80
2022/04/24 06:50:09;;;;;;;8.30;5.63;;;18.30;99.90;;;;;;5031353;28;20470;-80
2022/04/24 06:52:34;;;;;;;7.85;4.95;;;17.80;99.90;;;;;;5014229;28;20037;-80
2022/04/24 06:55:00;;;;;;;5.57;4.63;;;17.40;99.90;;;;;;5032033;28;20099;-80
2022/04/24 06:57:26;;;;;;;6.55;5.00;;;18.10;99.90;;;;;;5030702;28;20103;-80
2022/04/24 06:59:52;;;;;;;10.93;5.57;;;18.80;99.90;;;;;;5014289;28;20164;-80
2022/04/24 07:02:17;;;;;;;7.80;5.40;;;18.80;99.90;;;;;;5032569;28;20025;-80
2022/04/24 07:04:43;;;;;;;5.53;4.20;;;20.20;99.90;;;;;;5014572;28;20119;-80
2022/04/24 07:07:08;;;;;;;5.03;4.07;;;20.00;99.90;;;;;;5032686;28;20421;-80
2022/04/24 07:09:34;;;;;;;6.82;5.00;;;19.20;99.90;;;;;;5033071;28;20018;-80
2022/04/24 07:11:59;;;;;;;8.10;4.60;;;19.70;99.90;;;;;;5014310;28;20486;-80
2022/04/24 07:14:25;;;;;;;6.43;4.90;;;19.50;99.90;;;;;;5019345;28;20112;-80
2022/04/24 07:16:51;;;;;;;8.18;4.50;;;19.60;99.90;;;;;;5032465;28;20555;-80
2022/04/24 07:19:16;;;;;;;8.73;5.65;;;19.50;99.90;;;;;;5016787;28;20036;-80
2022/04/24 07:21:42;;;;;;;6.88;4.47;;;18.90;99.90;;;;;;5032254;28;20032;-80
2022/04/24 07:24:07;;;;;;;6.97;4.70;;;20.10;99.90;;;;;;5030650;28;20053;-80
2022/04/24 07:26:33;;;;;;;5.97;4.88;;;21.00;99.90;;;;;;5031705;28;20421;-80
2022/04/24 07:28:59;;;;;;;4.10;3.13;;;21.10;99.90;;;;;;5032767;28;20022;-80
2022/04/24 07:31:25;;;;;;;4.68;3.40;;;19.70;99.90;;;;;;5015350;28;20087;-80
2022/04/24 07:33:52;;;;;;;6.10;3.35;;;18.80;99.90;;;;;;5015353;28;20033;-81
2022/04/24 07:36:18;;;;;;;6.43;3.63;;;20.90;99.90;;;;;;5027019;28;20025;-80
2022/04/24 07:38:44;;;;;;;3.70;3.40;;;20.00;99.90;;;;;;5035276;28;20017;-80
2022/04/24 07:41:10;;;;;;;5.70;2.97;;;20.60;99.90;;;;;;5035018;28;20029;-81
2022/04/24 07:43:36;;;;;;;3.42;2.97;;;21.80;99.90;;;;;;5036979;28;20049;-80
2022/04/24 07:46:02;;;;;;;4.82;3.58;;;22.70;99.90;;;;;;5036894;28;20026;-81
2022/04/24 07:48:27;;;;;;;4.35;3.00;;;20.90;99.90;;;;;;5036888;28;20021;-80
2022/04/24 07:50:53;;;;;;;3.80;3.38;;;21.50;99.90;;;;;;5038440;28;20037;-80
2022/04/24 07:53:20;;;;;;;4.00;2.85;;;21.30;99.90;;;;;;5038599;28;20354;-80
2022/04/24 07:55:47;;;;;;;3.50;3.05;;;20.80;99.90;;;;;;5036565;28;20022;-80
2022/04/24 07:58:13;;;;;;;2.33;1.90;;;21.70;99.90;;;;;;5018453;28;20632;-80
2022/04/24 08:00:40;;;;;;;2.53;2.10;;;21.40;99.90;;;;;;5036338;28;20033;-79
2022/04/24 08:03:07;;;;;;;3.50;2.10;;;21.20;99.90;;;;;;5036310;28;20487;-80
2022/04/24 08:05:37;;;;;;;3.03;2.60;;;20.80;99.90;;;;;;5035596;28;20029;-80
2022/04/24 08:08:05;;;;;;;2.85;2.42;;;21.10;99.90;;;;;;5036059;28;20055;-80
2022/04/24 08:10:42;;;;;;;2.60;2.03;;;22.50;99.90;;;;;;5018343;28;20099;-79
2022/04/24 08:13:08;;;;;;;3.05;2.03;;;21.80;99.90;;;;;;5030623;28;20021;-79
2022/04/24 08:15:35;;;;;;;2.25;1.50;;;22.60;99.90;;;;;;5034859;28;20099;-79
2022/04/24 08:18:02;;;;;;;2.55;1.95;;;23.00;99.90;;;;;;5034808;28;20021;-79
2022/04/24 08:20:28;;;;;;;2.55;2.00;;;21.00;99.90;;;;;;5031603;28;20032;-79
2022/04/24 08:22:55;;;;;;;2.75;1.80;;;23.50;99.90;;;;;;5029416;28;20389;-78
2022/04/24 08:25:22;;;;;;;2.72;1.63;;;22.50;99.90;;;;;;5033925;28;20029;-78
2022/04/24 08:27:50;;;;;;;4.55;1.92;;;22.90;99.90;;;;;;5034349;28;20010;-79
2022/04/24 08:30:18;;;;;;;1.83;1.40;;;23.20;99.90;;;;;;5034576;28;20464;-79
2022/04/24 08:32:44;;;;;;;2.15;1.48;;;21.90;99.90;;;;;;5034347;28;20068;-79
2022/04/24 08:35:12;;;;;;;4.05;1.95;;;22.70;99.90;;;;;;5025840;28;20026;-79
2022/04/24 08:37:38;;;;;;;3.20;1.38;;;21.70;99.90;;;;;;5034149;28;20099;-79
2022/04/24 08:40:05;;;;;;;2.75;1.80;;;22.30;99.90;;;;;;5034320;28;20346;-79
2022/04/24 08:42:31;;;;;;;5.80;1.60;;;23.50;99.90;;;;;;5033926;28;20031;-79
2022/04/24 08:44:56;;;;;;;3.22;1.80;;;23.30;99.90;;;;;;5034113;28;20022;-79
2022/04/24 08:47:24;;;;;;;1.85;1.38;;;21.80;99.90;;;;;;5015756;28;20030;-79
2022/04/24 08:49:52;;;;;;;2.30;1.77;;;21.60;99.90;;;;;;5033939;28;20088;-79
2022/04/24 08:52:20;;;;;;;3.33;1.60;;;22.10;99.90;;;;;;5024853;28;20552;-79
2022/04/24 08:54:46;;;;;;;2.22;1.80;;;23.20;99.90;;;;;;5026555;28;20013;-79
2022/04/24 08:57:12;;;;;;;2.90;1.40;;;22.80;99.90;;;;;;5033936;28;20029;-79
2022/04/24 08:59:38;;;;;;;2.65;1.70;;;23.70;99.90;;;;;;5033702;28;20396;-79
2022/04/24 09:02:04;;;;;;;2.70;1.50;;;22.10;99.90;;;;;;5034077;28;20065;-79
2022/04/24 09:04:32;;;;;;;2.15;1.60;;;22.60;99.90;;;;;;5034103;28;20017;-79
2022/04/24 09:07:00;;;;;;;3.15;1.60;;;23.70;99.90;;;;;;5020187;28;20327;-78
2022/04/24 09:09:26;;;;;;;2.03;1.58;;;23.20;99.90;;;;;;5031281;28;20025;-79
2022/04/24 09:11:52;;;;;;;1.50;1.00;;;24.10;99.90;;;;;;5033394;28;20112;-79
2022/04/24 09:14:24;;;;;;;1.33;1.10;;;23.30;99.90;;;;;;5017431;28;20110;-79
2022/04/24 09:16:50;;;;;;;1.77;1.50;;;23.10;99.90;;;;;;5016518;28;20053;-79
2022/04/24 09:19:20;;;;;;;3.40;1.67;;;22.30;99.90;;;;;;5015986;28;20037;-79
2022/04/24 09:21:47;;;;;;;1.70;1.20;;;23.10;99.90;;;;;;5033052;28;20072;-78
2022/04/24 09:24:13;;;;;;;2.25;1.52;;;23.60;99.90;;;;;;5034000;28;20033;-78
2022/04/24 09:26:52;;;;;;;1.50;1.40;;;23.80;99.90;;;;;;5034892;28;20021;-80
2022/04/24 09:29:18;;;;;;;2.38;1.40;;;22.30;99.90;;;;;;5034545;28;20022;-85
2022/04/24 09:31:45;;;;;;;2.83;1.70;;;23.10;99.90;;;;;;5034303;28;20108;-79
2022/04/24 09:34:11;;;;;;;3.75;2.30;;;24.50;99.90;;;;;;5034229;28;20014;-80
2022/04/24 09:36:36;;;;;;;2.00;1.13;;;25.00;99.90;;;;;;5033446;28;20048;-79
2022/04/24 09:39:02;;;;;;;3.92;2.40;;;23.70;99.90;;;;;;5032144;28;20033;-79
2022/04/24 09:41:27;;;;;;;3.45;2.03;;;22.00;99.90;;;;;;5024851;28;20040;-79
2022/04/24 09:43:53;;;;;;;2.83;2.05;;;21.00;99.90;;;;;;5032878;28;20079;-79
2022/04/24 09:46:29;;;;;;;6.30;2.95;;;20.00;99.90;;;;;;5032614;28;20079;-79
2022/04/24 09:49:00;;;;;;;3.40;2.10;;;21.90;99.90;;;;;;5023138;28;20022;-79
2022/04/24 09:51:26;;;;;;;5.93;2.13;;;22.30;99.90;;;;;;5030967;28;20481;-79
2022/04/24 09:53:57;;;;;;;3.70;2.58;;;22.40;99.90;;;;;;5032572;28;20036;-79
2022/04/24 09:56:26;;;;;;;3.22;1.92;;;22.40;99.90;;;;;;5033198;28;20083;-79
2022/04/24 09:58:52;;;;;;;3.72;2.10;;;22.10;99.90;;;;;;5032593;28;20029;-80
2022/04/24 10:01:18;;;;;;;4.50;2.08;;;22.50;99.90;;;;;;5019440;28;20017;-79
2022/04/24 10:03:45;;;;;;;4.85;2.40;;;22.00;99.90;;;;;;5033059;28;20025;-79
2022/04/24 10:06:11;;;;;;;5.40;2.53;;;23.30;99.90;;;;;;5032513;28;20473;-79
2022/04/24 10:08:38;;;;;;;1.98;1.63;;;22.30;99.90;;;;;;5032259;28;20021;-79
2022/04/24 10:11:05;;;;;;;4.03;2.25;;;22.10;99.90;;;;;;5011241;28;20029;-79
2022/04/24 10:13:35;;;;;;;4.85;2.67;;;22.30;99.90;;;;;;5028028;28;20021;-79
2022/04/24 10:16:23;;;;;;;4.72;2.22;;;22.40;99.90;;;;;;5001670;28;20073;-79
2022/04/24 10:18:56;;;;;;;5.18;2.30;;;22.50;99.90;;;;;;5030999;28;20021;-78
2022/04/24 10:21:31;;;;;;;5.30;2.42;;;23.60;99.90;;;;;;5016107;28;20038;-78
2022/04/24 10:24:10;;;;;;;3.88;1.75;;;22.30;99.90;;;;;;5032974;28;20057;-78
2022/04/24 10:26:37;;;;;;;2.72;1.63;;;22.90;99.90;;;;;;5032481;28;20017;-79
2022/04/24 10:29:13;;;;;;;2.08;1.48;;;22.10;99.90;;;;;;5013854;28;20465;-79
2022/04/24 10:31:46;;;;;;;4.82;2.40;;;21.90;99.90;;;;;;5031485;28;20103;-78
2022/04/24 10:34:13;;;;;;;4.22;2.08;;;23.00;99.90;;;;;;5032405;28;20404;-79
2022/04/24 10:36:54;;;;;;;3.00;1.73;;;22.60;99.90;;;;;;5021273;28;20106;-78
2022/04/24 10:39:23;;;;;;;4.72;2.42;;;22.20;99.90;;;;;;5013379;28;20037;-78
2022/04/24 10:42:05;;;;;;;5.55;1.95;;;21.80;99.90;;;;;;5022174;28;20544;-78
2022/04/24 10:44:32;;;;;;;3.42;2.20;;;21.60;99.90;;;;;;5032701;28;20573;-78
2022/04/24 10:46:59;;;;;;;4.43;2.00;;;20.70;99.90;;;;;;5032766;28;20029;-79
2022/04/24 10:49:32;;;;;;;5.45;2.58;;;20.50;99.90;;;;;;5037268;28;20022;-80
2022/04/24 10:52:00;;;;;;;2.58;1.98;;;18.80;99.90;;;;;;5037029;28;20044;-79
2022/04/24 10:54:37;;;;;;;3.60;2.05;;;19.60;99.90;;;;;;5026332;28;20025;-79
2022/04/24 10:57:17;;;;;;;2.42;1.90;;;19.40;99.90;;;;;;5024244;28;20029;-79
2022/04/24 10:59:48;;;;;;;3.88;1.95;;;19.00;99.90;;;;;;5033208;28;20025;-78
2022/04/24 11:02:20;;;;;;;4.43;2.63;;;18.50;99.90;;;;;;5028616;28;20486;-79
2022/04/24 11:04:45;;;;;;;2.20;1.20;;;17.90;99.90;;;;;;5035464;28;20022;-80
2022/04/24 11:07:21;;;;;;;5.40;1.98;;;16.80;99.90;;;;;;5021229;28;20026;-79
2022/04/24 11:09:46;;;;;;;5.03;1.77;;;16.20;99.90;;;;;;5013498;28;20053;-79
2022/04/24 11:12:12;;;;;;;2.38;1.73;;;15.90;99.90;;;;;;5035200;28;20069;-79
2022/04/24 11:14:38;;;;;;;5.40;2.00;;;15.80;99.90;;;;;;5037113;28;20350;-79
2022/04/24 11:17:06;;;;;;;5.35;1.95;;;15.80;99.90;;;;;;5035766;28;20054;-79
2022/04/24 11:19:35;;;;;;;5.72;2.80;;;15.60;99.90;;;;;;5037413;28;20033;-79
2022/04/24 11:22:03;;;;;;;4.90;1.95;;;15.50;99.90;;;;;;5037313;28;20026;-78
2022/04/24 11:24:32;;;;;;;7.03;2.20;;;15.40;99.90;;;;;;5023517;28;20034;-78
2022/04/24 11:27:02;;;;;;;5.47;2.35;;;15.20;99.90;;;;;;5016362;28;20540;-79
2022/04/24 11:29:28;;;;;;;5.68;2.20;;;15.30;99.90;;;;;;5024390;28;20024;-79
2022/04/24 11:31:55;;;;;;;5.78;2.40;;;15.40;99.90;;;;;;5034935;28;20408;-79
2022/04/24 11:34:23;;;;;;;3.72;1.80;;;15.10;99.90;;;;;;5035489;28;20029;-78
2022/04/24 11:36:50;;;;;;;3.53;2.35;;;14.80;99.90;;;;;;5036102;28;20469;-79
2022/04/24 11:39:18;;;;;;;3.75;2.22;;;15.20;99.90;;;;;;5035760;28;20021;-79
2022/04/24 11:41:45;;;;;;;7.15;2.33;;;14.50;99.90;;;;;;5034501;28;20053;-79
2022/04/24 11:52:31;;;;;;;8.48;2.80;;;14.50;99.90;;;;;;5036008;28;20068;-77
2022/04/24 11:54:57;;;;;;;5.72;3.28;;;14.40;99.90;;;;;;5035885;28;20398;-77
2022/04/24 11:57:24;;;;;;;6.30;2.95;;;14.60;99.90;;;;;;5027305;28;20474;-77
2022/04/24 11:59:57;;;;;;;6.43;3.03;;;14.50;99.90;;;;;;5015928;28;20025;-77
2022/04/24 12:02:24;;;;;;;5.40;2.63;;;14.20;99.90;;;;;;5027245;28;20025;-77
2022/04/24 12:04:51;;;;;;;4.57;2.72;;;14.40;99.90;;;;;;5035944;28;20552;-77
2022/04/24 12:07:17;;;;;;;5.57;3.22;;;14.90;99.90;;;;;;5035169;28;20053;-79
2022/04/24 12:09:43;;;;;;;5.32;2.40;;;14.50;99.90;;;;;;5035110;28;20053;-79
2022/04/24 12:12:14;;;;;;;5.70;2.78;;;14.40;99.90;;;;;;5034895;28;20038;-79
2022/04/24 12:14:47;;;;;;;;;;;14.30;99.90;;;;;;5034869;28;20068;-79
2022/04/24 12:17:13;;;;;;;5.38;2.83;;;14.50;99.90;;;;;;5034501;28;20315;-79
2022/04/24 12:19:53;;;;;;;6.75;3.67;;;14.40;99.90;;;;;;5034395;28;20155;-79
2022/04/24 12:22:27;;;;;;;6.03;3.38;;;13.80;99.90;;;;;;5016059;28;20108;-78
2022/04/24 12:24:53;;;;;;;6.20;3.78;;;14.30;99.90;;;;;;5034329;28;20199;-79
2022/04/24 12:27:20;;;;;;;4.53;3.03;;;14.30;99.90;;;;;;5034734;28;20072;-79
2022/04/24 12:29:49;;;;;;;4.25;3.03;;;14.00;99.90;;;;;;5035204;28;20018;-78
2022/04/24 12:32:17;;;;;;;8.77;4.15;;;14.10;99.90;;;;;;5035095;28;20040;-79
2022/04/24 12:34:44;;;;;;;5.43;2.78;;;14.10;99.90;;;;;;5020603;28;20553;-80
2022/04/24 12:37:10;;;;;;;8.90;3.90;;;14.00;99.90;;;;;;5026843;28;20033;-80
2022/04/24 12:39:37;;;;;;;7.28;3.22;;;13.90;99.90;;;;;;5029670;28;20092;-80
2022/04/24 12:42:15;;;;;;;8.68;4.47;;;14.50;99.90;;;;;;5036202;28;20041;-79
2022/04/24 12:44:41;;;;;;;7.03;3.13;;;14.30;99.90;;;;;;5030590;28;20080;-80
2022/04/24 12:47:07;;;;;;;7.20;3.95;;;14.00;99.90;;;;;;5027756;28;20034;-80
2022/04/24 12:49:32;;;;;;;6.75;3.78;;;13.80;99.90;;;;;;5041980;28;20097;-79
2022/04/24 12:51:58;;;;;;;7.38;3.70;;;13.70;99.90;;;;;;5024166;28;20076;-80
2022/04/24 12:54:24;;;;;;;7.22;3.25;;;13.90;99.90;;;;;;5018966;28;20548;-79
2022/04/24 12:56:51;;;;;;;7.70;3.65;;;13.70;99.90;;;;;;5030080;28;20585;-80
2022/04/24 12:59:17;;;;;;;5.70;2.95;;;13.60;99.90;;;;;;5031112;28;20033;-80
2022/04/24 13:01:44;;;;;;;7.63;3.58;;;13.70;99.90;;;;;;5016321;28;20065;-80
2022/04/24 13:04:10;;;;;;;8.27;3.55;;;13.60;99.90;;;;;;5034241;28;20068;-79
2022/04/24 13:06:36;;;;;;;5.63;3.85;;;13.60;99.90;;;;;;5024581;28;20033;-81